Time;durP1;ratioP1;P1;durP2;ratioP2;P2;SDS_P1;SDS_P2;PMS_P1;PMS_P2;Temp;Humidity;BMP_temperature;BMP_pressure;BME280_temperature;BME280_humidity;BME280_pressure;Samples;Min_cycle;Max_cycle;Signal;HPM_P1;HPM_P2
2023/05/26 00:00:15;;;;;;;1.10;0.77;;;11.70;99.90;;;;;;5065792;28;21662;-79
2023/05/26 00:02:43;;;;;;;1.20;1.10;;;11.70;99.90;;;;;;5046077;28;20448;-79
2023/05/26 00:05:16;;;;;;;0.55;0.55;;;11.70;99.90;;;;;;5043382;28;20534;-79
2023/05/26 00:07:44;;;;;;;0.77;0.77;;;11.70;99.90;;;;;;5049960;28;20701;-80
2023/05/26 00:10:10;;;;;;;2.10;0.90;;;11.60;99.90;;;;;;5045874;28;20924;-80
2023/05/26 00:12:37;;;;;;;0.38;0.38;;;11.60;99.90;;;;;;5050984;28;20527;-79
2023/05/26 00:15:05;;;;;;;0.37;0.37;;;11.50;99.90;;;;;;5045229;28;20435;-78
2023/05/26 00:17:33;;;;;;;0.50;0.47;;;11.50;99.90;;;;;;5048122;28;20549;-79
2023/05/26 00:20:02;;;;;;;0.40;0.40;;;11.50;99.90;;;;;;5046141;28;20604;-80
2023/05/26 00:22:30;;;;;;;0.43;0.43;;;11.40;99.90;;;;;;5050701;28;20468;-80
2023/05/26 00:24:56;;;;;;;0.22;0.22;;;11.30;1.00;;;;;;5051023;28;20439;-80
2023/05/26 00:27:23;;;;;;;0.73;0.73;;;11.30;1.00;;;;;;5042982;28;20429;-80
2023/05/26 00:29:50;;;;;;;0.63;0.60;;;11.20;51.40;;;;;;5043354;28;20936;-80
2023/05/26 00:32:17;;;;;;;2.03;1.52;;;11.20;99.90;;;;;;5043014;28;20466;-80
2023/05/26 00:34:44;;;;;;;0.40;0.40;;;11.20;99.90;;;;;;5044098;28;20433;-80
2023/05/26 00:37:11;;;;;;;2.20;1.20;;;11.10;99.90;;;;;;5050693;28;20443;-81
2023/05/26 00:39:38;;;;;;;2.60;1.50;;;11.10;99.90;;;;;;5041146;28;20947;-80
2023/05/26 00:42:05;;;;;;;0.60;0.60;;;11.10;99.90;;;;;;5047039;28;20868;-80
2023/05/26 00:44:32;;;;;;;0.63;0.63;;;11.20;99.90;;;;;;5042624;28;20536;-81
2023/05/26 00:46:58;;;;;;;0.70;0.70;;;11.10;99.90;;;;;;5042699;28;21117;-80
2023/05/26 00:49:25;;;;;;;0.75;0.75;;;11.00;99.90;;;;;;5044865;28;20489;-80
2023/05/26 00:51:55;;;;;;;0.40;0.40;;;11.00;1.00;;;;;;5042335;28;20820;-80
2023/05/26 00:54:22;;;;;;;1.10;0.77;;;11.00;1.00;;;;;;5044059;28;20435;-80
2023/05/26 00:56:51;;;;;;;0.60;0.60;;;11.10;1.00;;;;;;5049974;28;20507;-79
2023/05/26 00:59:24;;;;;;;0.60;0.60;;;11.10;1.00;;;;;;5043587;28;20523;-80
2023/05/26 01:01:52;;;;;;;1.00;0.70;;;11.10;1.00;;;;;;5042706;28;20442;-79
2023/05/26 01:04:19;;;;;;;2.10;1.30;;;11.10;99.90;;;;;;5044674;28;20509;-80
2023/05/26 01:06:45;;;;;;;5.43;0.63;;;11.10;1.00;;;;;;5043859;28;20452;-80
2023/05/26 01:09:13;;;;;;;0.70;0.70;;;11.00;1.00;;;;;;5043501;28;20437;-80
2023/05/26 01:11:57;;;;;;;1.55;1.45;;;11.00;1.00;;;;;;5049015;28;20462;-80
2023/05/26 01:14:38;;;;;;;0.73;0.73;;;11.00;1.00;;;;;;5041398;28;20473;-79
2023/05/26 01:17:19;;;;;;;0.80;0.80;;;11.00;1.00;;;;;;5049588;28;20428;-78
2023/05/26 01:19:55;;;;;;;3.13;1.20;;;11.00;1.00;;;;;;5043216;28;20436;-78
2023/05/26 01:22:43;;;;;;;0.83;0.83;;;11.00;1.00;;;;;;5043303;28;20434;-79
2023/05/26 01:25:29;;;;;;;1.40;0.90;;;11.00;99.90;;;;;;5043889;28;20447;-79
2023/05/26 01:28:05;;;;;;;1.70;0.90;;;11.00;1.00;;;;;;5045149;28;20723;-79
2023/05/26 01:30:34;;;;;;;0.55;0.55;;;11.00;1.00;;;;;;5044164;28;20522;-80
2023/05/26 01:33:02;;;;;;;1.60;1.20;;;11.00;1.00;;;;;;5047102;28;20501;-79
2023/05/26 01:35:31;;;;;;;1.77;1.10;;;11.00;1.00;;;;;;5048726;28;20445;-80
2023/05/26 01:38:03;;;;;;;2.30;1.00;;;10.90;1.00;;;;;;5050133;28;20457;-79
2023/05/26 01:40:30;;;;;;;2.30;0.93;;;11.00;1.00;;;;;;5045482;28;20482;-79
2023/05/26 01:43:02;;;;;;;2.83;1.40;;;10.90;1.00;;;;;;5049150;28;20431;-79
2023/05/26 01:45:43;;;;;;;0.80;0.80;;;10.90;1.00;;;;;;5049298;28;20516;-79
2023/05/26 01:48:12;;;;;;;0.70;0.60;;;10.90;1.00;;;;;;5049338;28;20440;-79
2023/05/26 01:50:59;;;;;;;2.50;1.40;;;10.80;99.90;;;;;;5050675;28;20462;-79
2023/05/26 01:53:39;;;;;;;0.73;0.73;;;10.80;99.90;;;;;;5048192;28;20437;-79
2023/05/26 01:56:07;;;;;;;1.25;1.10;;;10.80;99.90;;;;;;5047128;28;20525;-79
2023/05/26 01:58:35;;;;;;;2.72;1.45;;;10.80;99.90;;;;;;5049775;28;20423;-79
2023/05/26 02:01:03;;;;;;;2.80;1.10;;;10.80;99.90;;;;;;5048122;28;20441;-79
2023/05/26 02:03:30;;;;;;;0.63;0.63;;;10.80;99.90;;;;;;5045015;28;20534;-79
2023/05/26 02:05:57;;;;;;;1.25;1.25;;;10.80;99.90;;;;;;5045414;28;20500;-79
2023/05/26 02:08:24;;;;;;;1.88;1.08;;;10.70;99.90;;;;;;5048112;28;20811;-79
2023/05/26 02:10:53;;;;;;;1.90;1.30;;;10.70;99.90;;;;;;5050073;28;20502;-79
2023/05/26 02:13:22;;;;;;;1.60;1.17;;;10.60;1.00;;;;;;5050731;28;20443;-79
2023/05/26 02:15:49;;;;;;;1.90;1.20;;;10.50;99.90;;;;;;5048491;28;20879;-79
2023/05/26 02:18:16;;;;;;;1.40;1.15;;;10.50;99.90;;;;;;5049727;28;21039;-79
2023/05/26 02:20:42;;;;;;;1.15;0.70;;;10.50;99.90;;;;;;5048012;28;20439;-79
2023/05/26 02:23:09;;;;;;;1.30;1.20;;;10.50;1.00;;;;;;5052456;28;20436;-80
2023/05/26 02:25:36;;;;;;;0.60;0.60;;;10.50;1.00;;;;;;5066614;28;20471;-79
2023/05/26 02:28:03;;;;;;;1.00;0.98;;;10.50;1.00;;;;;;5046843;28;20502;-79
2023/05/26 02:30:29;;;;;;;1.23;1.10;;;10.40;1.00;;;;;;5043505;28;20429;-79
2023/05/26 02:32:56;;;;;;;0.95;0.82;;;10.40;1.00;;;;;;5054120;28;20432;-80
2023/05/26 02:35:23;;;;;;;0.85;0.85;;;10.30;99.90;;;;;;5045275;28;20433;-79
2023/05/26 02:37:50;;;;;;;1.90;0.80;;;10.30;99.90;;;;;;5047527;28;20441;-79
2023/05/26 02:40:17;;;;;;;0.90;0.90;;;10.40;99.90;;;;;;5045772;28;20495;-80
2023/05/26 02:42:46;;;;;;;0.77;0.77;;;10.30;99.90;;;;;;5045087;28;20776;-79
2023/05/26 02:45:16;;;;;;;0.80;0.80;;;10.30;99.90;;;;;;5046202;28;20435;-79
2023/05/26 02:47:42;;;;;;;1.38;1.17;;;10.40;99.90;;;;;;5064626;28;20443;-79
2023/05/26 02:50:10;;;;;;;1.60;1.05;;;10.30;99.90;;;;;;5051873;28;20449;-79
2023/05/26 02:52:36;;;;;;;1.20;1.10;;;10.20;99.90;;;;;;5044634;28;20477;-79
2023/05/26 02:55:03;;;;;;;2.13;1.58;;;10.20;10.90;;;;;;5043659;28;20429;-79
2023/05/26 02:57:30;;;;;;;1.95;1.13;;;10.20;99.90;;;;;;5048063;28;20439;-79
2023/05/26 02:59:57;;;;;;;1.10;1.00;;;10.20;1.00;;;;;;5050107;28;20493;-79
2023/05/26 03:02:26;;;;;;;1.15;1.15;;;10.20;1.00;;;;;;5049470;28;20958;-80
2023/05/26 03:04:53;;;;;;;1.85;0.80;;;10.20;99.90;;;;;;5045521;28;20430;-80
2023/05/26 03:07:20;;;;;;;1.17;1.08;;;10.10;99.90;;;;;;5045548;28;20424;-80
2023/05/26 03:09:47;;;;;;;1.40;1.13;;;10.10;99.90;;;;;;5045577;28;20435;-79
2023/05/26 03:12:15;;;;;;;4.27;1.37;;;10.10;99.90;;;;;;5053164;28;20459;-80
2023/05/26 03:14:42;;;;;;;0.60;0.60;;;10.00;1.00;;;;;;5045359;28;20433;-79
2023/05/26 03:17:12;;;;;;;0.80;0.80;;;10.00;91.40;;;;;;5049856;28;20907;-79
2023/05/26 03:19:39;;;;;;;1.48;1.42;;;10.00;1.00;;;;;;5043582;28;20456;-79
2023/05/26 03:22:06;;;;;;;0.70;0.70;;;9.90;1.00;;;;;;5052625;28;20424;-79
2023/05/26 03:24:53;;;;;;;1.40;1.08;;;9.90;1.00;;;;;;5042674;28;20464;-79
2023/05/26 03:27:22;;;;;;;3.10;1.40;;;9.90;1.00;;;;;;5044425;28;20429;-79
2023/05/26 03:29:49;;;;;;;2.30;0.80;;;9.90;1.00;;;;;;5045350;28;20518;-79
2023/05/26 03:32:16;;;;;;;2.70;1.20;;;9.90;1.00;;;;;;5045135;28;20436;-79
2023/05/26 03:34:44;;;;;;;1.00;1.00;;;9.90;7.20;;;;;;5046724;28;20504;-79
2023/05/26 03:37:11;;;;;;;0.50;0.50;;;9.80;1.00;;;;;;5048166;28;21764;-78
2023/05/26 03:39:38;;;;;;;1.95;1.40;;;9.90;70.20;;;;;;5046471;28;20431;-79
2023/05/26 03:42:08;;;;;;;1.50;1.40;;;9.90;1.00;;;;;;5047343;28;20440;-78
2023/05/26 03:44:38;;;;;;;1.20;1.20;;;9.90;7.40;;;;;;5051597;28;20951;-79
2023/05/26 03:47:06;;;;;;;0.75;0.75;;;10.00;12.10;;;;;;5046466;28;20482;-78
2023/05/26 03:49:33;;;;;;;0.75;0.75;;;10.00;1.00;;;;;;5065396;28;20431;-79
2023/05/26 03:52:00;;;;;;;0.68;0.68;;;10.00;1.00;;;;;;5044794;28;20531;-78
2023/05/26 03:54:26;;;;;;;3.13;1.30;;;10.00;1.00;;;;;;5046087;28;20437;-80
2023/05/26 03:56:54;;;;;;;0.80;0.80;;;10.10;1.00;;;;;;5043842;28;20441;-78
2023/05/26 03:59:21;;;;;;;9.05;1.17;;;10.10;99.90;;;;;;5047801;28;20443;-78
2023/05/26 04:01:50;;;;;;;0.70;0.70;;;10.20;99.90;;;;;;5062042;28;20524;-78
2023/05/26 04:04:19;;;;;;;1.13;1.03;;;10.30;99.90;;;;;;5047712;28;20460;-79
2023/05/26 04:06:46;;;;;;;1.70;1.02;;;10.30;1.00;;;;;;5050936;28;20441;-79
2023/05/26 04:09:13;;;;;;;0.90;0.90;;;10.30;1.00;;;;;;5047260;28;21002;-79
2023/05/26 04:11:43;;;;;;;1.02;1.02;;;10.30;99.90;;;;;;5042156;28;20505;-79
2023/05/26 04:14:11;;;;;;;1.20;1.10;;;10.30;99.90;;;;;;5045102;28;20429;-79
2023/05/26 04:16:37;;;;;;;3.10;1.95;;;10.40;99.90;;;;;;5048269;28;20854;-79
2023/05/26 04:19:05;;;;;;;0.52;0.52;;;10.50;28.40;;;;;;5048957;28;20548;-79
2023/05/26 04:21:32;;;;;;;1.00;1.00;;;10.60;1.00;;;;;;5044041;28;20700;-79
2023/05/26 04:23:58;;;;;;;1.40;1.10;;;10.70;99.90;;;;;;5047419;28;20520;-79
2023/05/26 04:26:28;;;;;;;1.15;1.08;;;10.80;1.00;;;;;;5065734;28;20508;-80
2023/05/26 04:28:57;;;;;;;0.73;0.73;;;10.80;99.90;;;;;;5046145;28;20448;-79
2023/05/26 04:31:24;;;;;;;0.90;0.90;;;10.90;99.90;;;;;;5050687;28;20832;-79
2023/05/26 04:33:52;;;;;;;1.92;0.98;;;10.90;99.90;;;;;;5045140;28;20827;-80
2023/05/26 04:36:19;;;;;;;5.35;1.63;;;11.00;99.90;;;;;;5048472;28;20431;-79
2023/05/26 04:38:48;;;;;;;1.70;1.08;;;11.20;1.00;;;;;;5044725;28;20466;-79
2023/05/26 04:41:16;;;;;;;3.50;1.25;;;11.60;58.90;;;;;;5045340;28;20450;-80
2023/05/26 04:43:43;;;;;;;2.20;0.90;;;12.20;99.90;;;;;;5048804;28;20489;-79
2023/05/26 04:46:10;;;;;;;1.60;0.80;;;12.70;99.90;;;;;;5050055;28;20918;-79
2023/05/26 04:48:39;;;;;;;0.98;0.98;;;13.10;1.00;;;;;;5048538;28;20423;-79
2023/05/26 04:51:09;;;;;;;4.22;0.93;;;13.50;1.00;;;;;;5045567;28;21697;-79
2023/05/26 04:53:36;;;;;;;0.90;0.90;;;13.80;99.90;;;;;;5042159;28;20419;-79
2023/05/26 04:56:05;;;;;;;0.70;0.70;;;14.10;99.90;;;;;;5047648;28;20952;-79
2023/05/26 04:58:32;;;;;;;2.45;1.20;;;14.20;99.90;;;;;;5051585;28;21170;-79
2023/05/26 05:01:02;;;;;;;0.63;0.63;;;14.40;99.90;;;;;;5048329;28;20439;-79
2023/05/26 05:03:33;;;;;;;1.50;0.80;;;14.70;99.90;;;;;;5047884;28;20425;-79
2023/05/26 05:06:01;;;;;;;0.60;0.60;;;14.90;99.90;;;;;;5044818;28;21274;-80
2023/05/26 05:08:29;;;;;;;0.80;0.80;;;15.20;99.90;;;;;;5045120;28;20440;-79
2023/05/26 05:10:56;;;;;;;1.30;1.20;;;15.50;99.90;;;;;;5034499;28;20471;-80
2023/05/26 05:13:23;;;;;;;1.43;1.33;;;15.80;99.90;;;;;;5045278;28;20835;-80
2023/05/26 05:15:50;;;;;;;2.03;1.20;;;16.00;99.90;;;;;;5049192;28;20437;-80
2023/05/26 05:18:17;;;;;;;2.90;1.20;;;16.30;99.90;;;;;;5050188;28;20441;-79
2023/05/26 05:20:43;;;;;;;1.77;0.75;;;16.20;99.90;;;;;;5065594;28;20439;-80
2023/05/26 05:23:11;;;;;;;1.77;1.23;;;16.70;99.90;;;;;;5047762;28;20707;-80
2023/05/26 05:25:37;;;;;;;4.65;1.00;;;17.10;99.90;;;;;;5052449;28;20828;-80
2023/05/26 05:28:04;;;;;;;3.78;0.98;;;17.70;99.90;;;;;;5045306;28;21016;-79
2023/05/26 05:30:31;;;;;;;0.95;0.73;;;17.90;99.90;;;;;;5052309;28;20431;-80
2023/05/26 05:32:59;;;;;;;1.40;0.90;;;17.70;99.90;;;;;;5051335;28;20461;-80
2023/05/26 05:35:26;;;;;;;1.08;0.98;;;17.80;99.90;;;;;;5048887;28;20829;-79
2023/05/26 05:37:58;;;;;;;2.58;1.42;;;17.70;99.90;;;;;;5049563;28;20438;-80
2023/05/26 05:40:25;;;;;;;1.30;1.13;;;17.70;99.90;;;;;;5069805;28;20429;-79
2023/05/26 05:42:52;;;;;;;1.60;1.35;;;17.50;99.90;;;;;;5051542;28;20444;-83
2023/05/26 05:45:18;;;;;;;2.00;1.03;;;17.60;99.90;;;;;;5050809;28;20550;-80
2023/05/26 05:47:45;;;;;;;0.95;0.93;;;17.50;99.90;;;;;;5049767;28;20516;-83
2023/05/26 05:50:13;;;;;;;2.57;1.47;;;17.60;99.90;;;;;;5050131;28;20442;-82
2023/05/26 05:52:39;;;;;;;2.95;1.27;;;17.60;99.90;;;;;;5048968;28;20433;-78
2023/05/26 05:55:07;;;;;;;4.57;1.15;;;17.80;99.90;;;;;;5046732;28;20489;-79
2023/05/26 05:57:33;;;;;;;0.93;0.93;;;17.80;99.90;;;;;;5049599;28;20436;-79
2023/05/26 06:00:00;;;;;;;1.85;1.10;;;17.70;99.90;;;;;;5050527;28;20469;-78
2023/05/26 06:02:30;;;;;;;3.83;1.73;;;18.10;99.90;;;;;;5049694;28;20653;-80
2023/05/26 06:04:57;;;;;;;4.23;1.00;;;18.60;99.90;;;;;;5047330;28;20419;-79
2023/05/26 06:07:26;;;;;;;0.95;0.95;;;18.80;99.90;;;;;;5053291;28;20497;-80
2023/05/26 06:09:57;;;;;;;1.52;1.23;;;19.30;99.90;;;;;;5052040;28;20451;-79
2023/05/26 06:12:25;;;;;;;2.00;1.63;;;19.50;99.90;;;;;;5050194;28;20796;-80
2023/05/26 06:14:51;;;;;;;3.33;1.30;;;19.60;99.90;;;;;;5051983;28;20463;-78
2023/05/26 06:17:18;;;;;;;2.80;1.30;;;19.40;99.90;;;;;;5050071;28;20432;-79
2023/05/26 06:19:48;;;;;;;3.17;1.30;;;19.40;99.90;;;;;;5047351;28;20649;-80
2023/05/26 06:22:15;;;;;;;4.28;1.17;;;19.10;99.90;;;;;;5048819;28;21064;-80
2023/05/26 06:24:42;;;;;;;1.75;0.90;;;18.70;99.90;;;;;;5051140;28;20437;-82
2023/05/26 06:27:09;;;;;;;3.20;0.77;;;18.40;99.90;;;;;;5051730;28;20432;-79
2023/05/26 06:29:36;;;;;;;1.25;0.98;;;18.40;99.90;;;;;;5046626;28;20521;-86
2023/05/26 06:32:03;;;;;;;5.47;2.00;;;18.10;99.90;;;;;;5047180;28;20427;-83
2023/05/26 06:34:33;;;;;;;2.50;1.25;;;18.30;99.90;;;;;;5053475;28;20423;-78
2023/05/26 06:37:00;;;;;;;1.60;1.30;;;18.60;99.90;;;;;;5051139;28;21171;-81
2023/05/26 06:39:26;;;;;;;2.35;1.73;;;18.80;99.90;;;;;;5056965;28;20439;-86
2023/05/26 06:41:53;;;;;;;1.63;1.13;;;19.20;99.90;;;;;;5056831;28;20423;-83
2023/05/26 06:44:20;;;;;;;3.60;1.00;;;19.70;99.90;;;;;;5068184;28;20441;-81
2023/05/26 06:46:47;;;;;;;1.80;1.13;;;19.40;99.90;;;;;;5051188;28;20420;-86
2023/05/26 06:49:18;;;;;;;2.70;1.23;;;20.00;99.90;;;;;;5055937;28;20427;-84
2023/05/26 06:51:44;;;;;;;4.35;1.15;;;20.10;99.90;;;;;;5053512;28;20517;-84
2023/05/26 06:54:12;;;;;;;1.60;0.88;;;19.60;99.90;;;;;;5063882;28;20427;-83
2023/05/26 06:56:39;;;;;;;4.53;1.85;;;19.50;99.90;;;;;;5067354;28;20439;-84
2023/05/26 06:59:09;;;;;;;1.20;1.17;;;19.80;99.90;;;;;;5056681;28;20932;-83
2023/05/26 07:01:36;;;;;;;2.13;0.85;;;20.00;99.90;;;;;;5061345;28;20436;-84
2023/05/26 07:04:03;;;;;;;1.60;1.20;;;20.60;99.90;;;;;;5060029;28;20426;-84
2023/05/26 07:06:30;;;;;;;2.50;1.20;;;20.70;99.90;;;;;;5066403;28;20418;-85
2023/05/26 07:09:11;;;;;;;1.50;1.30;;;21.00;99.90;;;;;;5056981;28;20433;-84
2023/05/26 07:11:38;;;;;;;1.02;0.93;;;21.10;99.90;;;;;;5050347;28;20437;-84
2023/05/26 07:14:05;;;;;;;6.03;1.02;;;21.20;99.90;;;;;;5057509;28;20439;-83
2023/05/26 07:16:32;;;;;;;4.20;0.90;;;20.70;99.90;;;;;;5053171;28;20427;-84
2023/05/26 07:18:58;;;;;;;3.15;1.27;;;20.50;99.90;;;;;;5055603;28;20436;-84
2023/05/26 07:21:27;;;;;;;4.50;1.67;;;20.70;99.90;;;;;;5055936;28;21114;-85
2023/05/26 07:23:54;;;;;;;1.48;1.33;;;20.90;99.90;;;;;;5048931;28;20466;-85
2023/05/26 07:26:21;;;;;;;2.58;1.08;;;20.50;99.90;;;;;;5055225;28;20435;-84
2023/05/26 07:28:51;;;;;;;1.02;0.93;;;20.00;99.90;;;;;;5069356;28;20817;-82
2023/05/26 07:31:19;;;;;;;1.20;1.10;;;20.00;99.90;;;;;;5055185;28;20855;-84
2023/05/26 07:33:47;;;;;;;3.70;0.77;;;20.20;99.90;;;;;;5068543;28;20510;-84
2023/05/26 07:36:14;;;;;;;2.13;1.45;;;20.80;99.90;;;;;;5059715;28;20449;-82
2023/05/26 07:38:41;;;;;;;2.30;1.20;;;21.00;99.90;;;;;;5049347;28;20489;-84
2023/05/26 07:41:09;;;;;;;1.05;1.00;;;21.30;99.90;;;;;;5056221;28;20436;-84
2023/05/26 07:43:36;;;;;;;2.97;0.95;;;21.40;99.90;;;;;;5055887;28;20515;-84
2023/05/26 07:46:02;;;;;;;4.82;1.23;;;21.70;99.90;;;;;;5050699;28;20437;-84
2023/05/26 07:48:29;;;;;;;1.27;1.25;;;21.70;99.90;;;;;;5069340;28;20473;-86
2023/05/26 07:50:56;;;;;;;2.60;1.60;;;21.50;99.90;;;;;;5056260;28;20435;-84
2023/05/26 07:53:23;;;;;;;1.48;0.82;;;21.00;99.90;;;;;;5054764;28;20531;-85
2023/05/26 07:55:50;;;;;;;3.10;1.40;;;21.40;99.90;;;;;;5053717;28;20708;-85
2023/05/26 07:58:17;;;;;;;2.05;1.67;;;21.40;99.90;;;;;;5050479;28;20454;-81
2023/05/26 08:00:43;;;;;;;4.30;0.90;;;21.10;99.90;;;;;;5050751;28;20460;-83
2023/05/26 08:03:12;;;;;;;1.45;0.93;;;21.60;99.90;;;;;;5045856;28;20993;-80
2023/05/26 08:05:43;;;;;;;1.37;1.07;;;21.40;99.90;;;;;;5049188;28;20514;-83
2023/05/26 08:08:14;;;;;;;2.75;1.17;;;21.10;99.90;;;;;;5051533;28;21017;-81
2023/05/26 08:10:46;;;;;;;5.45;1.50;;;21.10;99.90;;;;;;5049519;28;20428;-83
2023/05/26 08:13:12;;;;;;;2.20;1.13;;;21.50;99.90;;;;;;5051656;28;20959;-86
2023/05/26 08:15:39;;;;;;;6.45;1.10;;;21.40;99.90;;;;;;5049813;28;20487;-83
2023/05/26 08:18:07;;;;;;;1.10;1.10;;;21.30;99.90;;;;;;5044181;28;20437;-81
2023/05/26 08:20:36;;;;;;;1.08;0.93;;;21.30;99.90;;;;;;5042762;28;20452;-80
2023/05/26 08:23:06;;;;;;;1.73;1.08;;;21.60;99.90;;;;;;5050075;28;20930;-86
2023/05/26 08:25:32;;;;;;;5.13;1.50;;;21.60;99.90;;;;;;5048696;28;20455;-80
2023/05/26 08:27:59;;;;;;;3.72;1.40;;;21.50;99.90;;;;;;5044680;28;20434;-85
2023/05/26 08:30:26;;;;;;;2.45;1.23;;;21.60;99.90;;;;;;5060979;28;20453;-87
2023/05/26 08:32:53;;;;;;;2.80;1.33;;;22.00;99.90;;;;;;5054358;28;21000;-84
2023/05/26 08:35:26;;;;;;;2.92;1.27;;;22.40;99.90;;;;;;5045303;28;20501;-82
2023/05/26 08:37:53;;;;;;;1.52;1.42;;;22.70;99.90;;;;;;5045543;28;20465;-82
2023/05/26 08:40:20;;;;;;;5.33;1.43;;;22.90;99.90;;;;;;5063093;28;20444;-80
2023/05/26 08:42:51;;;;;;;1.05;1.00;;;23.00;99.90;;;;;;5046539;28;20869;-81
2023/05/26 08:45:19;;;;;;;3.13;1.20;;;22.70;99.90;;;;;;5043991;28;20439;-81
2023/05/26 08:47:48;;;;;;;1.27;1.17;;;22.40;99.90;;;;;;5045493;28;20439;-81
2023/05/26 08:50:18;;;;;;;4.18;1.40;;;22.80;99.90;;;;;;5050933;28;20442;-80
2023/05/26 08:52:49;;;;;;;2.30;1.80;;;22.80;99.90;;;;;;5051115;28;20443;-81
2023/05/26 08:55:32;;;;;;;1.73;1.23;;;22.90;99.90;;;;;;5046051;28;20920;-81
2023/05/26 08:58:08;;;;;;;2.13;0.75;;;23.10;99.90;;;;;;5046447;28;21012;-81
2023/05/26 09:00:35;;;;;;;0.98;0.98;;;23.40;99.90;;;;;;5048576;28;20439;-79
2023/05/26 09:03:04;;;;;;;1.70;1.20;;;23.50;99.90;;;;;;5047091;28;20437;-80
2023/05/26 09:05:31;;;;;;;2.53;1.50;;;23.60;99.90;;;;;;5052006;28;20437;-81
2023/05/26 09:07:58;;;;;;;2.55;1.10;;;23.60;99.90;;;;;;5046630;28;20492;-80
2023/05/26 09:10:27;;;;;;;2.25;1.40;;;23.70;99.90;;;;;;5052428;28;20442;-81
2023/05/26 09:13:12;;;;;;;2.15;1.20;;;23.30;99.90;;;;;;5049291;28;20522;-80
2023/05/26 09:15:40;;;;;;;1.45;1.17;;;22.90;99.90;;;;;;5045891;28;20425;-81
2023/05/26 09:18:11;;;;;;;5.75;1.17;;;22.70;99.90;;;;;;5064101;28;20500;-82
2023/05/26 09:20:49;;;;;;;1.23;1.17;;;22.50;99.90;;;;;;5053589;28;20534;-78
2023/05/26 09:23:20;;;;;;;2.60;0.90;;;22.10;99.90;;;;;;5045760;28;20457;-82
2023/05/26 09:25:51;;;;;;;1.83;1.33;;;22.30;99.90;;;;;;5045384;28;20469;-81
2023/05/26 09:28:20;;;;;;;1.48;1.38;;;22.30;99.90;;;;;;5048470;28;21316;-81
2023/05/26 09:30:47;;;;;;;1.10;0.93;;;22.30;99.90;;;;;;5054708;28;20491;-85
2023/05/26 09:33:16;;;;;;;1.65;1.08;;;22.70;99.90;;;;;;5055236;28;20436;-83
2023/05/26 09:35:46;;;;;;;4.43;1.00;;;23.00;99.90;;;;;;5046599;28;21147;-81
2023/05/26 09:38:16;;;;;;;1.05;1.05;;;23.10;99.90;;;;;;5067931;28;20959;-80
2023/05/26 09:40:47;;;;;;;1.70;0.80;;;23.20;99.90;;;;;;5050081;28;20433;-80
2023/05/26 09:43:19;;;;;;;4.30;1.20;;;23.40;99.90;;;;;;5053005;28;20439;-81
2023/05/26 09:45:49;;;;;;;0.95;0.95;;;23.70;99.90;;;;;;5048561;28;20436;-79
2023/05/26 09:48:16;;;;;;;1.17;1.15;;;23.70;99.90;;;;;;5052498;28;20435;-81
2023/05/26 09:50:43;;;;;;;1.17;1.00;;;23.90;99.90;;;;;;5046901;28;20814;-80
2023/05/26 09:53:10;;;;;;;1.58;0.80;;;23.10;99.90;;;;;;5054058;28;20438;-80
2023/05/26 09:55:42;;;;;;;3.47;1.08;;;22.90;99.90;;;;;;5043644;28;20438;-82
2023/05/26 09:58:13;;;;;;;1.50;1.00;;;23.10;99.90;;;;;;5050740;28;20989;-79
2023/05/26 10:00:43;;;;;;;1.55;0.88;;;23.50;99.90;;;;;;5049921;28;20450;-78
2023/05/26 10:03:12;;;;;;;1.92;1.02;;;23.90;99.90;;;;;;5051763;28;20429;-79
2023/05/26 10:05:44;;;;;;;2.50;1.00;;;24.20;99.90;;;;;;5049798;28;20508;-81
2023/05/26 10:08:18;;;;;;;3.50;1.00;;;24.10;99.90;;;;;;5054062;28;20518;-81
2023/05/26 10:10:47;;;;;;;2.00;1.00;;;23.50;99.90;;;;;;5055726;28;20528;-83
2023/05/26 10:13:17;;;;;;;3.40;0.90;;;23.50;99.90;;;;;;5045697;28;20437;-80
2023/05/26 10:15:48;;;;;;;3.25;1.27;;;23.80;99.90;;;;;;5046929;28;20458;-82
2023/05/26 10:18:15;;;;;;;2.08;1.02;;;24.00;99.90;;;;;;5047120;28;20945;-79
2023/05/26 10:20:50;;;;;;;0.88;0.88;;;23.90;99.90;;;;;;5049205;28;20425;-81
2023/05/26 10:23:23;;;;;;;2.08;1.15;;;24.10;99.90;;;;;;5053875;28;20423;-82
2023/05/26 10:26:12;;;;;;;0.85;0.85;;;24.30;99.90;;;;;;5046656;28;20575;-82
2023/05/26 10:28:55;;;;;;;0.60;0.60;;;24.70;99.90;;;;;;5046052;28;20441;-86
2023/05/26 10:31:30;;;;;;;1.00;0.90;;;25.00;99.90;;;;;;5053365;28;20439;-84
2023/05/26 10:33:57;;;;;;;2.28;1.10;;;24.80;99.90;;;;;;5067349;28;20466;-86
2023/05/26 10:36:28;;;;;;;3.45;1.85;;;24.70;99.90;;;;;;5052326;28;20431;-84
2023/05/26 10:38:55;;;;;;;0.90;0.90;;;24.40;99.90;;;;;;5051506;28;20473;-82
2023/05/26 10:41:34;;;;;;;1.50;1.02;;;24.70;99.90;;;;;;5070604;28;20922;-84
2023/05/26 10:44:02;;;;;;;1.40;1.23;;;25.00;99.90;;;;;;5071905;28;20483;-89
2023/05/26 10:47:03;;;;;;;1.15;1.13;;;24.70;99.90;;;;;;5080255;28;20439;-87
2023/05/26 10:49:36;;;;;;;1.50;0.90;;;24.70;99.90;;;;;;5088911;28;20445;-85
2023/05/26 10:52:15;;;;;;;1.20;0.88;;;24.80;99.90;;;;;;5070336;28;20432;-85
2023/05/26 10:54:42;;;;;;;1.67;1.47;;;24.70;99.90;;;;;;5078291;28;20435;-86
2023/05/26 10:57:41;;;;;;;2.45;1.50;;;24.70;99.90;;;;;;5076269;28;20467;-88
2023/05/26 11:00:33;;;;;;;2.60;1.08;;;24.00;99.90;;;;;;5056331;28;20438;-86
2023/05/26 11:03:00;;;;;;;1.77;1.38;;;24.40;99.90;;;;;;5018726;28;20426;-83
2023/05/26 11:05:33;;;;;;;2.28;1.27;;;24.70;99.90;;;;;;5031476;28;20839;-85
2023/05/26 11:07:59;;;;;;;2.40;1.40;;;25.00;99.90;;;;;;5043246;28;20427;-85
2023/05/26 11:11:00;;;;;;;3.40;1.30;;;24.90;99.90;;;;;;5022084;28;20590;-86
2023/05/26 11:13:43;;;;;;;2.88;1.08;;;24.80;99.90;;;;;;5036555;28;20951;-85
2023/05/26 11:16:22;;;;;;;2.53;1.50;;;25.00;99.90;;;;;;5050248;28;20839;-86
2023/05/26 11:18:51;;;;;;;3.60;0.80;;;24.70;99.90;;;;;;5050552;28;20449;-84
2023/05/26 11:21:24;;;;;;;0.90;0.90;;;24.20;99.90;;;;;;5051079;28;20433;-84
2023/05/26 11:23:52;;;;;;;0.90;0.90;;;23.80;99.90;;;;;;5049441;28;20431;-85
2023/05/26 11:26:21;;;;;;;1.70;1.20;;;24.40;99.90;;;;;;5029378;28;20421;-85
2023/05/26 11:28:51;;;;;;;3.33;1.50;;;24.60;99.90;;;;;;5053210;28;20439;-86
2023/05/26 11:31:21;;;;;;;1.10;1.10;;;24.90;99.90;;;;;;5066454;28;20518;-85
2023/05/26 11:33:48;;;;;;;3.85;1.23;;;24.70;99.90;;;;;;5053321;28;20444;-86
2023/05/26 11:36:17;;;;;;;2.50;0.97;;;24.80;99.90;;;;;;5065318;28;20461;-86
2023/05/26 11:38:45;;;;;;;1.47;1.10;;;24.60;99.90;;;;;;5072515;28;20431;-84
2023/05/26 11:41:17;;;;;;;3.42;1.33;;;24.50;99.90;;;;;;5073543;28;20522;-89
2023/05/26 11:43:45;;;;;;;1.40;0.97;;;24.60;99.90;;;;;;5072133;28;20439;-86
2023/05/26 11:46:15;;;;;;;2.28;1.50;;;24.70;99.90;;;;;;5069624;28;20432;-85
2023/05/26 11:48:45;;;;;;;3.50;1.38;;;24.90;99.90;;;;;;5071960;28;20431;-85
2023/05/26 11:51:13;;;;;;;0.80;0.80;;;24.90;99.90;;;;;;5074241;28;20491;-84
2023/05/26 11:53:42;;;;;;;1.80;1.35;;;24.70;99.90;;;;;;5073549;28;20806;-84
2023/05/26 11:56:14;;;;;;;2.60;1.30;;;24.80;99.90;;;;;;5076116;28;20427;-85
2023/05/26 11:58:48;;;;;;;2.10;1.55;;;24.50;99.90;;;;;;5073863;28;20435;-87
2023/05/26 12:01:15;;;;;;;2.53;1.60;;;24.40;99.90;;;;;;5076123;28;20762;-89
2023/05/26 12:03:46;;;;;;;2.90;1.25;;;24.70;99.90;;;;;;5063028;28;20476;-85
2023/05/26 12:06:23;;;;;;;1.50;1.20;;;24.30;99.90;;;;;;5083914;28;20419;-87
2023/05/26 12:08:51;;;;;;;1.40;0.90;;;24.70;99.90;;;;;;5072224;28;20454;-88
2023/05/26 12:11:29;;;;;;;2.10;1.17;;;24.10;99.90;;;;;;5069630;28;20431;-87
2023/05/26 12:13:57;;;;;;;1.75;1.08;;;23.60;99.90;;;;;;5072476;28;20446;-83
2023/05/26 12:16:32;;;;;;;2.58;0.88;;;24.10;99.90;;;;;;5071607;28;20447;-87
2023/05/26 12:19:05;;;;;;;2.10;0.70;;;24.40;99.90;;;;;;5063078;28;20459;-85
2023/05/26 12:21:42;;;;;;;0.70;0.70;;;24.60;99.90;;;;;;5048924;28;20461;-88
2023/05/26 12:24:10;;;;;;;1.20;0.85;;;24.50;99.90;;;;;;5061007;28;20419;-84
2023/05/26 12:26:40;;;;;;;4.90;1.15;;;24.70;99.90;;;;;;5068730;28;20535;-86
2023/05/26 12:29:12;;;;;;;2.30;0.80;;;24.50;99.90;;;;;;5069793;28;20764;-86
2023/05/26 12:31:48;;;;;;;5.13;1.57;;;24.20;99.90;;;;;;5090361;28;20424;-87
2023/05/26 12:34:21;;;;;;;1.50;0.85;;;24.60;99.90;;;;;;5068502;28;20518;-86
2023/05/26 12:36:49;;;;;;;2.53;1.20;;;24.40;99.90;;;;;;5069391;28;20474;-85
2023/05/26 12:39:18;;;;;;;2.35;1.50;;;24.70;99.90;;;;;;5074406;28;20429;-84
2023/05/26 12:41:45;;;;;;;1.20;1.10;;;24.90;99.90;;;;;;5068785;28;20442;-84
2023/05/26 12:44:13;;;;;;;1.35;0.85;;;25.00;99.90;;;;;;5072956;28;20515;-86
2023/05/26 12:46:42;;;;;;;1.10;1.10;;;24.70;99.90;;;;;;5069987;28;21686;-87
2023/05/26 12:49:10;;;;;;;1.80;0.80;;;24.70;99.90;;;;;;5058976;28;20440;-86
2023/05/26 12:51:39;;;;;;;2.60;1.08;;;24.40;99.90;;;;;;5052239;28;20718;-85
2023/05/26 12:54:08;;;;;;;1.50;1.05;;;24.60;99.90;;;;;;5051315;28;20433;-86
2023/05/26 12:56:36;;;;;;;2.63;1.00;;;24.70;99.90;;;;;;5056078;28;20433;-85
2023/05/26 12:59:08;;;;;;;4.80;1.10;;;24.90;99.90;;;;;;5052175;28;20514;-85